sensor_id;sensor_type;location;lat;lon;timestamp;P1;durP1;ratioP1;P2;durP2;ratioP2
37199;SDS011;23096;50.892;16.746;2023-09-12T00:02:00;7.70;;;6.40;;
37199;SDS011;23096;50.892;16.746;2023-09-12T00:04:26;8.50;;;7.60;;
37199;SDS011;23096;50.892;16.746;2023-09-12T00:06:52;9.40;;;8.00;;
37199;SDS011;23096;50.892;16.746;2023-09-12T00:09:17;12.20;;;9.00;;
37199;SDS011;23096;50.892;16.746;2023-09-12T00:11:42;9.50;;;7.60;;
37199;SDS011;23096;50.892;16.746;2023-09-12T00:14:08;12.00;;;8.30;;
37199;SDS011;23096;50.892;16.746;2023-09-12T00:16:34;11.20;;;7.70;;
37199;SDS011;23096;50.892;16.746;2023-09-12T00:19:00;11.00;;;7.40;;
37199;SDS011;23096;50.892;16.746;2023-09-12T00:21:25;9.70;;;8.70;;
37199;SDS011;23096;50.892;16.746;2023-09-12T00:23:51;13.00;;;8.10;;
37199;SDS011;23096;50.892;16.746;2023-09-12T00:26:16;10.70;;;8.30;;
37199;SDS011;23096;50.892;16.746;2023-09-12T00:28:44;8.60;;;7.20;;
37199;SDS011;23096;50.892;16.746;2023-09-12T00:31:10;9.50;;;8.10;;
37199;SDS011;23096;50.892;16.746;2023-09-12T00:33:35;14.00;;;8.20;;
37199;SDS011;23096;50.892;16.746;2023-09-12T00:36:01;8.00;;;7.20;;
37199;SDS011;23096;50.892;16.746;2023-09-12T00:38:28;8.80;;;7.80;;
37199;SDS011;23096;50.892;16.746;2023-09-12T00:40:54;10.10;;;7.40;;
37199;SDS011;23096;50.892;16.746;2023-09-12T00:43:19;8.60;;;7.40;;
37199;SDS011;23096;50.892;16.746;2023-09-12T00:45:45;9.50;;;7.60;;
37199;SDS011;23096;50.892;16.746;2023-09-12T00:48:10;8.70;;;7.80;;
37199;SDS011;23096;50.892;16.746;2023-09-12T00:50:37;10.60;;;7.70;;
37199;SDS011;23096;50.892;16.746;2023-09-12T00:53:05;8.00;;;7.10;;
37199;SDS011;23096;50.892;16.746;2023-09-12T00:55:31;9.70;;;7.50;;
37199;SDS011;23096;50.892;16.746;2023-09-12T00:57:59;10.60;;;7.30;;
37199;SDS011;23096;50.892;16.746;2023-09-12T01:00:26;8.00;;;6.90;;
37199;SDS011;23096;50.892;16.746;2023-09-12T01:02:52;10.30;;;7.70;;
37199;SDS011;23096;50.892;16.746;2023-09-12T01:05:19;9.00;;;8.10;;
37199;SDS011;23096;50.892;16.746;2023-09-12T01:07:45;9.50;;;8.00;;
37199;SDS011;23096;50.892;16.746;2023-09-12T01:10:12;12.80;;;7.50;;
37199;SDS011;23096;50.892;16.746;2023-09-12T01:12:37;7.80;;;7.00;;
37199;SDS011;23096;50.892;16.746;2023-09-12T01:15:03;8.30;;;7.30;;
37199;SDS011;23096;50.892;16.746;2023-09-12T01:17:33;9.30;;;7.70;;
37199;SDS011;23096;50.892;16.746;2023-09-12T01:19:59;12.80;;;7.80;;
37199;SDS011;23096;50.892;16.746;2023-09-12T01:22:46;9.20;;;7.60;;
37199;SDS011;23096;50.892;16.746;2023-09-12T01:25:20;11.70;;;7.00;;
37199;SDS011;23096;50.892;16.746;2023-09-12T01:28:08;10.60;;;7.90;;
37199;SDS011;23096;50.892;16.746;2023-09-12T01:30:35;9.10;;;7.10;;
37199;SDS011;23096;50.892;16.746;2023-09-12T01:33:01;8.80;;;7.70;;
37199;SDS011;23096;50.892;16.746;2023-09-12T01:35:28;8.90;;;7.90;;
37199;SDS011;23096;50.892;16.746;2023-09-12T01:37:54;9.40;;;7.70;;
37199;SDS011;23096;50.892;16.746;2023-09-12T01:40:27;9.60;;;8.00;;
37199;SDS011;23096;50.892;16.746;2023-09-12T01:42:58;9.70;;;8.70;;
37199;SDS011;23096;50.892;16.746;2023-09-12T01:45:26;7.80;;;6.90;;
37199;SDS011;23096;50.892;16.746;2023-09-12T01:47:52;8.60;;;7.50;;
37199;SDS011;23096;50.892;16.746;2023-09-12T01:50:19;8.70;;;7.30;;
37199;SDS011;23096;50.892;16.746;2023-09-12T01:52:45;10.10;;;8.30;;
37199;SDS011;23096;50.892;16.746;2023-09-12T01:55:12;9.30;;;8.00;;
37199;SDS011;23096;50.892;16.746;2023-09-12T01:57:39;8.50;;;7.10;;
37199;SDS011;23096;50.892;16.746;2023-09-12T02:00:06;9.20;;;8.20;;
37199;SDS011;23096;50.892;16.746;2023-09-12T02:02:32;8.90;;;7.80;;
37199;SDS011;23096;50.892;16.746;2023-09-12T02:05:16;9.20;;;7.70;;
37199;SDS011;23096;50.892;16.746;2023-09-12T02:07:45;9.40;;;8.30;;
37199;SDS011;23096;50.892;16.746;2023-09-12T02:10:11;9.70;;;7.90;;
37199;SDS011;23096;50.892;16.746;2023-09-12T02:12:37;8.70;;;7.70;;
37199;SDS011;23096;50.892;16.746;2023-09-12T02:15:03;9.10;;;8.10;;
37199;SDS011;23096;50.892;16.746;2023-09-12T02:17:29;9.20;;;7.70;;
37199;SDS011;23096;50.892;16.746;2023-09-12T02:19:55;10.00;;;8.50;;
37199;SDS011;23096;50.892;16.746;2023-09-12T02:22:20;9.50;;;7.90;;
37199;SDS011;23096;50.892;16.746;2023-09-12T02:24:46;10.10;;;8.00;;
37199;SDS011;23096;50.892;16.746;2023-09-12T02:27:11;8.80;;;7.60;;
37199;SDS011;23096;50.892;16.746;2023-09-12T02:29:40;8.60;;;7.50;;
37199;SDS011;23096;50.892;16.746;2023-09-12T02:32:07;8.50;;;7.50;;
37199;SDS011;23096;50.892;16.746;2023-09-12T02:34:33;9.60;;;7.70;;
37199;SDS011;23096;50.892;16.746;2023-09-12T02:36:59;9.00;;;7.70;;
37199;SDS011;23096;50.892;16.746;2023-09-12T02:39:25;9.80;;;8.10;;
37199;SDS011;23096;50.892;16.746;2023-09-12T02:41:50;9.90;;;8.20;;
37199;SDS011;23096;50.892;16.746;2023-09-12T02:44:16;9.10;;;7.70;;
37199;SDS011;23096;50.892;16.746;2023-09-12T02:46:41;12.60;;;8.70;;
37199;SDS011;23096;50.892;16.746;2023-09-12T02:49:07;10.30;;;9.20;;
37199;SDS011;23096;50.892;16.746;2023-09-12T02:51:32;10.70;;;8.50;;
37199;SDS011;23096;50.892;16.746;2023-09-12T02:53:58;11.60;;;8.30;;
37199;SDS011;23096;50.892;16.746;2023-09-12T02:56:24;12.90;;;8.20;;
37199;SDS011;23096;50.892;16.746;2023-09-12T02:58:49;9.10;;;7.90;;
37199;SDS011;23096;50.892;16.746;2023-09-12T03:01:19;9.20;;;8.00;;
37199;SDS011;23096;50.892;16.746;2023-09-12T03:03:46;10.20;;;8.00;;
37199;SDS011;23096;50.892;16.746;2023-09-12T03:06:13;8.00;;;7.20;;
37199;SDS011;23096;50.892;16.746;2023-09-12T03:08:40;11.30;;;7.80;;
37199;SDS011;23096;50.892;16.746;2023-09-12T03:11:07;9.80;;;7.70;;
37199;SDS011;23096;50.892;16.746;2023-09-12T03:13:33;9.00;;;7.10;;
37199;SDS011;23096;50.892;16.746;2023-09-12T03:15:59;9.40;;;8.30;;
37199;SDS011;23096;50.892;16.746;2023-09-12T03:18:26;8.90;;;8.00;;
37199;SDS011;23096;50.892;16.746;2023-09-12T03:20:52;10.80;;;7.90;;
37199;SDS011;23096;50.892;16.746;2023-09-12T03:23:18;10.70;;;8.70;;
37199;SDS011;23096;50.892;16.746;2023-09-12T03:25:44;11.70;;;8.70;;
37199;SDS011;23096;50.892;16.746;2023-09-12T03:28:10;11.40;;;8.50;;
37199;SDS011;23096;50.892;16.746;2023-09-12T03:30:36;9.70;;;8.30;;
37199;SDS011;23096;50.892;16.746;2023-09-12T03:33:05;9.60;;;8.60;;
37199;SDS011;23096;50.892;16.746;2023-09-12T03:35:32;9.40;;;8.00;;
37199;SDS011;23096;50.892;16.746;2023-09-12T03:37:58;8.70;;;7.80;;
37199;SDS011;23096;50.892;16.746;2023-09-12T03:40:24;11.20;;;8.60;;
37199;SDS011;23096;50.892;16.746;2023-09-12T03:42:50;11.80;;;8.30;;
37199;SDS011;23096;50.892;16.746;2023-09-12T03:45:15;9.50;;;7.70;;
37199;SDS011;23096;50.892;16.746;2023-09-12T03:47:41;9.70;;;8.00;;
37199;SDS011;23096;50.892;16.746;2023-09-12T03:50:09;13.00;;;8.30;;
37199;SDS011;23096;50.892;16.746;2023-09-12T03:52:34;9.10;;;8.00;;
37199;SDS011;23096;50.892;16.746;2023-09-12T03:55:00;14.40;;;8.10;;
37199;SDS011;23096;50.892;16.746;2023-09-12T03:57:26;10.80;;;7.70;;
37199;SDS011;23096;50.892;16.746;2023-09-12T03:59:52;8.90;;;7.40;;
37199;SDS011;23096;50.892;16.746;2023-09-12T04:02:18;9.80;;;7.60;;
37199;SDS011;23096;50.892;16.746;2023-09-12T04:04:44;8.80;;;7.40;;
37199;SDS011;23096;50.892;16.746;2023-09-12T04:07:09;8.40;;;7.20;;
37199;SDS011;23096;50.892;16.746;2023-09-12T04:09:35;10.30;;;7.80;;
37199;SDS011;23096;50.892;16.746;2023-09-12T04:12:01;10.20;;;7.80;;
37199;SDS011;23096;50.892;16.746;2023-09-12T04:14:26;10.00;;;7.40;;
37199;SDS011;23096;50.892;16.746;2023-09-12T04:16:52;10.10;;;7.50;;
37199;SDS011;23096;50.892;16.746;2023-09-12T04:19:17;9.40;;;8.30;;
37199;SDS011;23096;50.892;16.746;2023-09-12T04:21:43;11.30;;;7.60;;
37199;SDS011;23096;50.892;16.746;2023-09-12T04:24:09;8.50;;;7.60;;
37199;SDS011;23096;50.892;16.746;2023-09-12T04:26:34;9.70;;;7.70;;
37199;SDS011;23096;50.892;16.746;2023-09-12T04:29:00;10.00;;;8.00;;
37199;SDS011;23096;50.892;16.746;2023-09-12T04:31:26;8.40;;;7.60;;
37199;SDS011;23096;50.892;16.746;2023-09-12T04:33:52;8.40;;;7.50;;
37199;SDS011;23096;50.892;16.746;2023-09-12T04:36:18;9.20;;;7.40;;
37199;SDS011;23096;50.892;16.746;2023-09-12T04:38:44;8.50;;;7.50;;
37199;SDS011;23096;50.892;16.746;2023-09-12T04:41:11;8.90;;;7.60;;
37199;SDS011;23096;50.892;16.746;2023-09-12T04:43:40;12.50;;;8.40;;
37199;SDS011;23096;50.892;16.746;2023-09-12T04:46:06;8.80;;;7.40;;
37199;SDS011;23096;50.892;16.746;2023-09-12T04:48:32;9.10;;;7.10;;
37199;SDS011;23096;50.892;16.746;2023-09-12T04:50:59;10.10;;;7.90;;
37199;SDS011;23096;50.892;16.746;2023-09-12T04:53:25;8.70;;;7.40;;
37199;SDS011;23096;50.892;16.746;2023-09-12T04:55:54;11.70;;;7.90;;
37199;SDS011;23096;50.892;16.746;2023-09-12T04:58:19;11.40;;;7.70;;
37199;SDS011;23096;50.892;16.746;2023-09-12T05:00:45;9.30;;;7.80;;
37199;SDS011;23096;50.892;16.746;2023-09-12T05:03:11;10.90;;;7.80;;
37199;SDS011;23096;50.892;16.746;2023-09-12T05:05:39;8.10;;;6.80;;
37199;SDS011;23096;50.892;16.746;2023-09-12T05:08:05;10.90;;;7.80;;
37199;SDS011;23096;50.892;16.746;2023-09-12T05:10:30;14.90;;;8.00;;
37199;SDS011;23096;50.892;16.746;2023-09-12T05:12:56;11.00;;;7.50;;
37199;SDS011;23096;50.892;16.746;2023-09-12T05:15:22;9.80;;;7.80;;
37199;SDS011;23096;50.892;16.746;2023-09-12T05:17:47;8.70;;;7.80;;
37199;SDS011;23096;50.892;16.746;2023-09-12T05:20:13;11.00;;;7.80;;
37199;SDS011;23096;50.892;16.746;2023-09-12T05:22:38;7.90;;;7.10;;
37199;SDS011;23096;50.892;16.746;2023-09-12T05:25:04;8.40;;;7.40;;
37199;SDS011;23096;50.892;16.746;2023-09-12T05:27:31;9.00;;;7.30;;
37199;SDS011;23096;50.892;16.746;2023-09-12T05:29:57;11.40;;;8.30;;
37199;SDS011;23096;50.892;16.746;2023-09-12T05:32:22;12.30;;;7.20;;
37199;SDS011;23096;50.892;16.746;2023-09-12T05:34:48;10.70;;;7.30;;
37199;SDS011;23096;50.892;16.746;2023-09-12T05:37:15;10.80;;;7.60;;
37199;SDS011;23096;50.892;16.746;2023-09-12T05:39:41;31.70;;;12.00;;
37199;SDS011;23096;50.892;16.746;2023-09-12T05:42:07;29.20;;;10.20;;
37199;SDS011;23096;50.892;16.746;2023-09-12T05:44:32;15.80;;;9.50;;
37199;SDS011;23096;50.892;16.746;2023-09-12T05:46:58;13.20;;;8.70;;
37199;SDS011;23096;50.892;16.746;2023-09-12T05:49:23;14.00;;;8.90;;
37199;SDS011;23096;50.892;16.746;2023-09-12T05:51:49;13.10;;;10.00;;
37199;SDS011;23096;50.892;16.746;2023-09-12T05:54:15;9.50;;;8.10;;
37199;SDS011;23096;50.892;16.746;2023-09-12T05:56:41;16.70;;;8.60;;
37199;SDS011;23096;50.892;16.746;2023-09-12T05:59:06;12.20;;;8.40;;
37199;SDS011;23096;50.892;16.746;2023-09-12T06:01:32;19.00;;;10.60;;
37199;SDS011;23096;50.892;16.746;2023-09-12T06:03:57;20.10;;;11.40;;
37199;SDS011;23096;50.892;16.746;2023-09-12T06:06:23;35.80;;;13.20;;
37199;SDS011;23096;50.892;16.746;2023-09-12T06:08:48;33.20;;;14.00;;
37199;SDS011;23096;50.892;16.746;2023-09-12T06:11:14;28.40;;;10.90;;
37199;SDS011;23096;50.892;16.746;2023-09-12T06:13:39;29.10;;;12.30;;
37199;SDS011;23096;50.892;16.746;2023-09-12T06:16:05;26.10;;;12.30;;
37199;SDS011;23096;50.892;16.746;2023-09-12T06:18:31;30.00;;;10.70;;
37199;SDS011;23096;50.892;16.746;2023-09-12T06:20:58;25.30;;;12.00;;
37199;SDS011;23096;50.892;16.746;2023-09-12T06:23:24;28.70;;;10.70;;
37199;SDS011;23096;50.892;16.746;2023-09-12T06:25:50;32.50;;;11.30;;
37199;SDS011;23096;50.892;16.746;2023-09-12T06:28:24;37.40;;;11.30;;
37199;SDS011;23096;50.892;16.746;2023-09-12T06:30:51;24.40;;;11.80;;
37199;SDS011;23096;50.892;16.746;2023-09-12T06:33:16;24.10;;;11.80;;
37199;SDS011;23096;50.892;16.746;2023-09-12T06:35:42;31.30;;;11.80;;
37199;SDS011;23096;50.892;16.746;2023-09-12T06:38:07;33.70;;;12.70;;
37199;SDS011;23096;50.892;16.746;2023-09-12T06:40:33;26.70;;;11.10;;
37199;SDS011;23096;50.892;16.746;2023-09-12T06:42:58;22.40;;;10.10;;
37199;SDS011;23096;50.892;16.746;2023-09-12T06:45:24;13.50;;;9.30;;
37199;SDS011;23096;50.892;16.746;2023-09-12T06:47:49;19.60;;;9.80;;
37199;SDS011;23096;50.892;16.746;2023-09-12T06:50:15;24.10;;;9.90;;
37199;SDS011;23096;50.892;16.746;2023-09-12T06:52:41;30.60;;;10.60;;
37199;SDS011;23096;50.892;16.746;2023-09-12T06:55:06;20.70;;;10.20;;
37199;SDS011;23096;50.892;16.746;2023-09-12T06:57:32;18.60;;;10.30;;
37199;SDS011;23096;50.892;16.746;2023-09-12T06:59:57;22.90;;;10.30;;
37199;SDS011;23096;50.892;16.746;2023-09-12T07:02:23;12.80;;;9.70;;
37199;SDS011;23096;50.892;16.746;2023-09-12T07:04:49;25.90;;;10.20;;
37199;SDS011;23096;50.892;16.746;2023-09-12T07:07:14;16.40;;;10.00;;
37199;SDS011;23096;50.892;16.746;2023-09-12T07:09:40;13.90;;;10.70;;
37199;SDS011;23096;50.892;16.746;2023-09-12T07:12:05;11.40;;;10.10;;
37199;SDS011;23096;50.892;16.746;2023-09-12T07:14:31;12.50;;;10.10;;
37199;SDS011;23096;50.892;16.746;2023-09-12T07:16:57;11.20;;;9.70;;
37199;SDS011;23096;50.892;16.746;2023-09-12T07:19:23;10.40;;;9.10;;
37199;SDS011;23096;50.892;16.746;2023-09-12T07:21:49;12.30;;;9.20;;
37199;SDS011;23096;50.892;16.746;2023-09-12T07:24:15;9.80;;;8.90;;
37199;SDS011;23096;50.892;16.746;2023-09-12T07:26:40;16.30;;;10.20;;
37199;SDS011;23096;50.892;16.746;2023-09-12T07:29:06;11.90;;;9.40;;
37199;SDS011;23096;50.892;16.746;2023-09-12T07:31:32;13.30;;;9.40;;
37199;SDS011;23096;50.892;16.746;2023-09-12T07:33:57;9.90;;;8.90;;
37199;SDS011;23096;50.892;16.746;2023-09-12T07:36:23;13.70;;;9.30;;
37199;SDS011;23096;50.892;16.746;2023-09-12T07:38:48;16.90;;;10.20;;
37199;SDS011;23096;50.892;16.746;2023-09-12T07:41:15;11.80;;;10.10;;
37199;SDS011;23096;50.892;16.746;2023-09-12T07:43:40;13.00;;;11.50;;
37199;SDS011;23096;50.892;16.746;2023-09-12T07:46:05;13.00;;;11.60;;
37199;SDS011;23096;50.892;16.746;2023-09-12T07:48:31;10.20;;;9.00;;
37199;SDS011;23096;50.892;16.746;2023-09-12T07:50:57;10.30;;;8.50;;
37199;SDS011;23096;50.892;16.746;2023-09-12T07:53:23;9.70;;;8.50;;
37199;SDS011;23096;50.892;16.746;2023-09-12T07:55:48;12.30;;;8.60;;
37199;SDS011;23096;50.892;16.746;2023-09-12T07:58:15;8.80;;;7.90;;
37199;SDS011;23096;50.892;16.746;2023-09-12T08:00:41;10.70;;;8.80;;
37199;SDS011;23096;50.892;16.746;2023-09-12T08:03:07;9.50;;;7.30;;
37199;SDS011;23096;50.892;16.746;2023-09-12T08:05:33;8.20;;;7.40;;
37199;SDS011;23096;50.892;16.746;2023-09-12T08:07:58;10.00;;;7.60;;
37199;SDS011;23096;50.892;16.746;2023-09-12T08:10:26;9.20;;;7.80;;
37199;SDS011;23096;50.892;16.746;2023-09-12T08:12:51;10.90;;;7.30;;
37199;SDS011;23096;50.892;16.746;2023-09-12T08:15:17;11.30;;;7.30;;
37199;SDS011;23096;50.892;16.746;2023-09-12T08:17:43;8.10;;;7.40;;
37199;SDS011;23096;50.892;16.746;2023-09-12T08:20:08;8.20;;;7.20;;
37199;SDS011;23096;50.892;16.746;2023-09-12T08:22:35;9.90;;;6.50;;
37199;SDS011;23096;50.892;16.746;2023-09-12T08:25:02;7.20;;;6.50;;
37199;SDS011;23096;50.892;16.746;2023-09-12T08:27:27;9.50;;;7.00;;
37199;SDS011;23096;50.892;16.746;2023-09-12T08:29:53;6.20;;;5.60;;
37199;SDS011;23096;50.892;16.746;2023-09-12T08:32:18;8.60;;;6.80;;
37199;SDS011;23096;50.892;16.746;2023-09-12T08:34:45;7.60;;;6.90;;
37199;SDS011;23096;50.892;16.746;2023-09-12T08:37:10;7.00;;;6.20;;
37199;SDS011;23096;50.892;16.746;2023-09-12T08:39:40;8.10;;;7.30;;
37199;SDS011;23096;50.892;16.746;2023-09-12T08:42:10;7.90;;;6.80;;
37199;SDS011;23096;50.892;16.746;2023-09-12T08:44:39;6.90;;;6.20;;
37199;SDS011;23096;50.892;16.746;2023-09-12T08:47:06;8.70;;;7.30;;
37199;SDS011;23096;50.892;16.746;2023-09-12T08:49:34;13.40;;;6.50;;
37199;SDS011;23096;50.892;16.746;2023-09-12T08:52:00;7.30;;;6.00;;
37199;SDS011;23096;50.892;16.746;2023-09-12T08:54:26;6.70;;;6.00;;
37199;SDS011;23096;50.892;16.746;2023-09-12T08:56:51;8.90;;;6.40;;
37199;SDS011;23096;50.892;16.746;2023-09-12T08:59:18;9.00;;;6.20;;
37199;SDS011;23096;50.892;16.746;2023-09-12T09:01:45;7.60;;;6.80;;
37199;SDS011;23096;50.892;16.746;2023-09-12T09:04:12;9.40;;;6.60;;
37199;SDS011;23096;50.892;16.746;2023-09-12T09:06:38;12.00;;;7.20;;
37199;SDS011;23096;50.892;16.746;2023-09-12T09:09:07;7.50;;;6.60;;
37199;SDS011;23096;50.892;16.746;2023-09-12T09:11:33;7.30;;;6.50;;
37199;SDS011;23096;50.892;16.746;2023-09-12T09:14:01;8.50;;;6.70;;
37199;SDS011;23096;50.892;16.746;2023-09-12T09:16:28;13.20;;;7.30;;
37199;SDS011;23096;50.892;16.746;2023-09-12T09:21:21;6.40;;;5.80;;
37199;SDS011;23096;50.892;16.746;2023-09-12T09:23:50;7.30;;;6.60;;
37199;SDS011;23096;50.892;16.746;2023-09-12T09:26:17;6.80;;;5.80;;
37199;SDS011;23096;50.892;16.746;2023-09-12T09:28:43;8.20;;;6.70;;
37199;SDS011;23096;50.892;16.746;2023-09-12T09:31:12;7.80;;;7.00;;
37199;SDS011;23096;50.892;16.746;2023-09-12T09:33:41;8.50;;;6.20;;
37199;SDS011;23096;50.892;16.746;2023-09-12T09:36:11;7.40;;;6.40;;
37199;SDS011;23096;50.892;16.746;2023-09-12T09:38:36;6.20;;;5.60;;
37199;SDS011;23096;50.892;16.746;2023-09-12T09:41:08;8.90;;;5.70;;
37199;SDS011;23096;50.892;16.746;2023-09-12T09:43:35;7.10;;;6.30;;
37199;SDS011;23096;50.892;16.746;2023-09-12T09:46:00;7.00;;;5.90;;
37199;SDS011;23096;50.892;16.746;2023-09-12T09:48:26;6.60;;;5.90;;
37199;SDS011;23096;50.892;16.746;2023-09-12T09:50:52;11.50;;;6.40;;
37199;SDS011;23096;50.892;16.746;2023-09-12T09:53:26;9.30;;;5.90;;
37199;SDS011;23096;50.892;16.746;2023-09-12T09:55:52;25.60;;;22.90;;
37199;SDS011;23096;50.892;16.746;2023-09-12T09:58:17;11.80;;;7.70;;
37199;SDS011;23096;50.892;16.746;2023-09-12T10:00:43;10.00;;;6.30;;
37199;SDS011;23096;50.892;16.746;2023-09-12T10:03:10;9.20;;;6.20;;
37199;SDS011;23096;50.892;16.746;2023-09-12T10:05:37;10.80;;;6.20;;
37199;SDS011;23096;50.892;16.746;2023-09-12T10:08:03;9.80;;;6.00;;
37199;SDS011;23096;50.892;16.746;2023-09-12T10:10:34;7.80;;;6.10;;
37199;SDS011;23096;50.892;16.746;2023-09-12T10:13:00;9.70;;;6.30;;
37199;SDS011;23096;50.892;16.746;2023-09-12T10:15:29;8.30;;;6.30;;
37199;SDS011;23096;50.892;16.746;2023-09-12T10:17:59;11.40;;;5.90;;
37199;SDS011;23096;50.892;16.746;2023-09-12T10:20:33;7.60;;;5.90;;
37199;SDS011;23096;50.892;16.746;2023-09-12T10:23:08;6.90;;;6.30;;
37199;SDS011;23096;50.892;16.746;2023-09-12T10:25:39;8.10;;;6.00;;
37199;SDS011;23096;50.892;16.746;2023-09-12T10:28:08;9.10;;;6.90;;
37199;SDS011;23096;50.892;16.746;2023-09-12T10:30:34;17.50;;;6.10;;
37199;SDS011;23096;50.892;16.746;2023-09-12T10:33:03;9.50;;;6.60;;
37199;SDS011;23096;50.892;16.746;2023-09-12T10:35:30;7.50;;;6.50;;
37199;SDS011;23096;50.892;16.746;2023-09-12T10:38:00;8.40;;;5.70;;
37199;SDS011;23096;50.892;16.746;2023-09-12T10:40:31;6.90;;;6.20;;
37199;SDS011;23096;50.892;16.746;2023-09-12T10:43:01;6.70;;;5.90;;
37199;SDS011;23096;50.892;16.746;2023-09-12T10:45:33;7.60;;;6.30;;
37199;SDS011;23096;50.892;16.746;2023-09-12T10:50:27;9.20;;;6.10;;
37199;SDS011;23096;50.892;16.746;2023-09-12T10:52:54;6.90;;;6.20;;
37199;SDS011;23096;50.892;16.746;2023-09-12T10:55:19;8.00;;;6.70;;
37199;SDS011;23096;50.892;16.746;2023-09-12T10:58:03;7.30;;;6.40;;
37199;SDS011;23096;50.892;16.746;2023-09-12T11:00:30;8.30;;;6.10;;
37199;SDS011;23096;50.892;16.746;2023-09-12T11:05:53;7.30;;;5.80;;
37199;SDS011;23096;50.892;16.746;2023-09-12T11:08:20;7.50;;;6.80;;
37199;SDS011;23096;50.892;16.746;2023-09-12T11:10:58;7.70;;;5.80;;
37199;SDS011;23096;50.892;16.746;2023-09-12T11:13:44;7.30;;;5.90;;
37199;SDS011;23096;50.892;16.746;2023-09-12T11:16:11;8.20;;;6.90;;
37199;SDS011;23096;50.892;16.746;2023-09-12T11:21:36;7.40;;;6.40;;
37199;SDS011;23096;50.892;16.746;2023-09-12T11:24:02;8.10;;;6.30;;
37199;SDS011;23096;50.892;16.746;2023-09-12T11:26:29;7.40;;;6.10;;
37199;SDS011;23096;50.892;16.746;2023-09-12T11:28:55;8.80;;;6.50;;
37199;SDS011;23096;50.892;16.746;2023-09-12T11:31:26;9.20;;;6.70;;
37199;SDS011;23096;50.892;16.746;2023-09-12T11:33:52;10.20;;;6.70;;
37199;SDS011;23096;50.892;16.746;2023-09-12T11:36:18;17.90;;;6.80;;
37199;SDS011;23096;50.892;16.746;2023-09-12T11:38:44;6.60;;;5.90;;
37199;SDS011;23096;50.892;16.746;2023-09-12T11:41:26;6.70;;;6.00;;
37199;SDS011;23096;50.892;16.746;2023-09-12T11:44:04;7.50;;;6.20;;
37199;SDS011;23096;50.892;16.746;2023-09-12T11:46:31;9.20;;;6.70;;
37199;SDS011;23096;50.892;16.746;2023-09-12T11:49:00;8.00;;;6.60;;
37199;SDS011;23096;50.892;16.746;2023-09-12T11:51:27;9.70;;;6.90;;
37199;SDS011;23096;50.892;16.746;2023-09-12T11:53:53;8.40;;;7.30;;
37199;SDS011;23096;50.892;16.746;2023-09-12T11:56:20;9.20;;;7.20;;
37199;SDS011;23096;50.892;16.746;2023-09-12T11:58:46;9.80;;;7.90;;
37199;SDS011;23096;50.892;16.746;2023-09-12T12:01:12;11.20;;;6.60;;
37199;SDS011;23096;50.892;16.746;2023-09-12T12:03:39;9.20;;;6.90;;
37199;SDS011;23096;50.892;16.746;2023-09-12T12:06:04;7.70;;;6.00;;
37199;SDS011;23096;50.892;16.746;2023-09-12T12:08:31;9.90;;;7.00;;
37199;SDS011;23096;50.892;16.746;2023-09-12T12:10:57;10.00;;;6.70;;
37199;SDS011;23096;50.892;16.746;2023-09-12T12:13:26;7.70;;;5.90;;
37199;SDS011;23096;50.892;16.746;2023-09-12T12:15:53;11.50;;;7.30;;
37199;SDS011;23096;50.892;16.746;2023-09-12T12:18:18;7.80;;;6.60;;
37199;SDS011;23096;50.892;16.746;2023-09-12T12:20:44;11.50;;;6.90;;
37199;SDS011;23096;50.892;16.746;2023-09-12T12:23:10;10.30;;;6.70;;
37199;SDS011;23096;50.892;16.746;2023-09-12T12:25:36;8.20;;;6.20;;
37199;SDS011;23096;50.892;16.746;2023-09-12T12:28:02;9.30;;;7.20;;
37199;SDS011;23096;50.892;16.746;2023-09-12T12:30:32;9.80;;;6.70;;
37199;SDS011;23096;50.892;16.746;2023-09-12T12:33:17;13.20;;;7.00;;
37199;SDS011;23096;50.892;16.746;2023-09-12T12:35:44;19.40;;;7.10;;
37199;SDS011;23096;50.892;16.746;2023-09-12T12:38:09;9.60;;;6.70;;
37199;SDS011;23096;50.892;16.746;2023-09-12T12:40:38;9.10;;;6.60;;
37199;SDS011;23096;50.892;16.746;2023-09-12T12:43:05;9.70;;;6.60;;
37199;SDS011;23096;50.892;16.746;2023-09-12T12:45:31;6.80;;;6.20;;
37199;SDS011;23096;50.892;16.746;2023-09-12T12:48:00;10.60;;;7.00;;
37199;SDS011;23096;50.892;16.746;2023-09-12T12:50:26;12.40;;;8.20;;
37199;SDS011;23096;50.892;16.746;2023-09-12T12:52:51;9.60;;;6.60;;
37199;SDS011;23096;50.892;16.746;2023-09-12T12:55:17;11.60;;;7.50;;
37199;SDS011;23096;50.892;16.746;2023-09-12T12:57:47;9.90;;;6.60;;
37199;SDS011;23096;50.892;16.746;2023-09-12T13:00:17;10.20;;;6.70;;
37199;SDS011;23096;50.892;16.746;2023-09-12T13:02:44;8.80;;;5.70;;
37199;SDS011;23096;50.892;16.746;2023-09-12T13:05:26;15.50;;;6.90;;
37199;SDS011;23096;50.892;16.746;2023-09-12T13:07:53;7.80;;;7.00;;
37199;SDS011;23096;50.892;16.746;2023-09-12T13:10:19;10.40;;;6.20;;
37199;SDS011;23096;50.892;16.746;2023-09-12T13:12:46;10.00;;;6.70;;
37199;SDS011;23096;50.892;16.746;2023-09-12T13:15:12;7.50;;;6.40;;
37199;SDS011;23096;50.892;16.746;2023-09-12T13:17:38;9.00;;;6.70;;
37199;SDS011;23096;50.892;16.746;2023-09-12T13:20:04;15.60;;;7.20;;
37199;SDS011;23096;50.892;16.746;2023-09-12T13:22:33;16.90;;;7.30;;
37199;SDS011;23096;50.892;16.746;2023-09-12T13:24:59;8.60;;;7.60;;
37199;SDS011;23096;50.892;16.746;2023-09-12T13:27:24;12.40;;;7.00;;
37199;SDS011;23096;50.892;16.746;2023-09-12T13:29:50;12.30;;;7.00;;
37199;SDS011;23096;50.892;16.746;2023-09-12T13:32:15;8.40;;;6.60;;
37199;SDS011;23096;50.892;16.746;2023-09-12T13:34:43;8.40;;;6.50;;
37199;SDS011;23096;50.892;16.746;2023-09-12T13:37:10;7.30;;;6.20;;
37199;SDS011;23096;50.892;16.746;2023-09-12T13:39:35;11.60;;;7.40;;
37199;SDS011;23096;50.892;16.746;2023-09-12T13:42:01;12.60;;;7.20;;
37199;SDS011;23096;50.892;16.746;2023-09-12T13:44:28;13.10;;;6.90;;
37199;SDS011;23096;50.892;16.746;2023-09-12T13:46:54;8.90;;;6.80;;
37199;SDS011;23096;50.892;16.746;2023-09-12T13:49:19;11.40;;;7.00;;
37199;SDS011;23096;50.892;16.746;2023-09-12T13:51:45;11.60;;;7.10;;
37199;SDS011;23096;50.892;16.746;2023-09-12T13:54:10;13.20;;;7.50;;
37199;SDS011;23096;50.892;16.746;2023-09-12T13:56:43;7.00;;;6.30;;
37199;SDS011;23096;50.892;16.746;2023-09-12T13:59:09;9.90;;;6.00;;
37199;SDS011;23096;50.892;16.746;2023-09-12T14:01:34;7.30;;;6.10;;
37199;SDS011;23096;50.892;16.746;2023-09-12T14:04:00;7.90;;;6.40;;
37199;SDS011;23096;50.892;16.746;2023-09-12T14:06:26;9.30;;;6.60;;
37199;SDS011;23096;50.892;16.746;2023-09-12T14:08:52;8.60;;;6.40;;
37199;SDS011;23096;50.892;16.746;2023-09-12T14:11:18;9.00;;;6.50;;
37199;SDS011;23096;50.892;16.746;2023-09-12T14:13:43;8.60;;;6.30;;
37199;SDS011;23096;50.892;16.746;2023-09-12T14:16:09;9.30;;;6.30;;
37199;SDS011;23096;50.892;16.746;2023-09-12T14:18:34;10.50;;;6.20;;
37199;SDS011;23096;50.892;16.746;2023-09-12T14:21:00;8.30;;;6.20;;
37199;SDS011;23096;50.892;16.746;2023-09-12T14:23:26;7.80;;;6.10;;
37199;SDS011;23096;50.892;16.746;2023-09-12T14:25:51;7.30;;;6.10;;
37199;SDS011;23096;50.892;16.746;2023-09-12T14:28:16;7.80;;;6.30;;
37199;SDS011;23096;50.892;16.746;2023-09-12T14:30:42;7.20;;;6.50;;
37199;SDS011;23096;50.892;16.746;2023-09-12T14:33:10;7.40;;;5.60;;
37199;SDS011;23096;50.892;16.746;2023-09-12T14:35:36;6.20;;;5.60;;
37199;SDS011;23096;50.892;16.746;2023-09-12T14:38:01;10.90;;;6.70;;